Glenpark — MBQB5 — position and weather

sailwx.info

Track history (hours):
 
Tides and Currents Weather Stations Pressure Air Temp Water Temp Dewpoint Dewpoint Depression Visibility Wind Speed Wind Dir Waves Ship Positions

Glenpark

Last reported at 2018-Jun-13 00:34 UTC. Time now 2018-Jun-19 12:33 UTC.
Position N 32°01' E 120°24'.

Length 183 m; draft 10.6 m.

Type: Cargo ship. MMSI: 232010350.

Date/timePositionNaut miles runAvg speedWind from/ knotsBaromVisibWave heightAir tempDewpointWater temp
2018-Jun-13 00:34N 32°01' E 120°24'1 9.1
2018-Jun-13 00:28N 32°01' E 120°25'4 9.0
2018-Jun-13 00:00N 32°02' E 120°30'77 9.1
2018-Jun-12 15:28N 31°19' E 121°45'810.8
2018-Jun-12 14:43N 31°16' E 121°54'210.8
2018-Jun-12 14:29N 31°15' E 121°57'610.9
2018-Jun-12 13:57N 31°14' E 122°03'711.9
2018-Jun-12 13:21N 31°11' E 122°11'512.8
2018-Jun-12 12:59N 31°08' E 122°15'610.6
2018-Jun-12 12:25N 31°06' E 122°22'4 8.6
2018-Jun-12 11:56N 31°07' E 122°27'3 6.8
2018-Jun-12 11:29N 31°07' E 122°30'2 4.3
2018-Jun-12 11:00N 31°09' E 122°31'3 6.3
2018-Jun-12 10:29N 31°12' E 122°32'4 7.6
2018-Jun-12 10:00N 31°12' E 122°36'3 6.0
2018-Jun-12 09:30N 31°12' E 122°39'2 0.5
2018-Jun-12 04:45N 31°12' E 122°42'0 0.1
2018-Jun-12 01:51N 31°12' E 122°42'0 0.1
2018-Jun-12 01:27N 31°12' E 122°42'0 0.0
2018-Jun-12 00:48N 31°12' E 122°42'0 0.0
2018-Jun-12 00:24N 31°12' E 122°42'0 0.1
2018-Jun-12 00:00N 31°12' E 122°42'0 0.0
2018-Jun-11 23:30N 31°12' E 122°42'0 0.0
2018-Jun-11 23:00N 31°12' E 122°42'  
2018-Jun-09 01:17N 31°11' E 122°48'511.9
2018-Jun-09 00:54N 31°09' E 122°53'9 9.7
2018-Jun-08 23:56N 31°08' E 123°03'4 9.9
2018-Jun-08 23:29N 31°05' E 123°08'1814.0
2018-Jun-08 22:13N 30°51' E 123°21'49112.2
2018-Jun-07 05:53N 23°52' E 118°33'513.5
2018-Jun-07 05:29N 23°49' E 118°28'4412.8
2018-Jun-07 02:04N 23°27' E 117°47'112.2
2018-Jun-07 02:00N 23°26' E 117°46'612.5
2018-Jun-07 01:30N 23°24' E 117°40'  
Track history (hours):
 
Tides and Currents Weather Stations Pressure Air Temp Water Temp Dewpoint Dewpoint Depression Visibility Wind Speed Wind Dir Waves Ship Positions

Glenpark

Last reported at 2018-Jun-13 00:34 UTC. Time now 2018-Jun-19 12:33 UTC.
Position N 32°01' E 120°24'.

Length 183 m; draft 10.6 m.

Type: Cargo ship. MMSI: 232010350.

Date/timePositionNaut miles runAvg speedWind from/ knotsBaromVisibWave heightAir tempDewpointWater temp
2018-Jun-13 00:34N 32°01' E 120°24'1 9.1
2018-Jun-13 00:28N 32°01' E 120°25'4 9.0
2018-Jun-13 00:00N 32°02' E 120°30'77 9.1
2018-Jun-12 15:28N 31°19' E 121°45'810.8
2018-Jun-12 14:43N 31°16' E 121°54'210.8
2018-Jun-12 14:29N 31°15' E 121°57'610.9
2018-Jun-12 13:57N 31°14' E 122°03'711.9
2018-Jun-12 13:21N 31°11' E 122°11'512.8
2018-Jun-12 12:59N 31°08' E 122°15'610.6
2018-Jun-12 12:25N 31°06' E 122°22'4 8.6
2018-Jun-12 11:56N 31°07' E 122°27'3 6.8
2018-Jun-12 11:29N 31°07' E 122°30'2 4.3
2018-Jun-12 11:00N 31°09' E 122°31'3 6.3
2018-Jun-12 10:29N 31°12' E 122°32'4 7.6
2018-Jun-12 10:00N 31°12' E 122°36'3 6.0
2018-Jun-12 09:30N 31°12' E 122°39'2 0.5
2018-Jun-12 04:45N 31°12' E 122°42'0 0.1
2018-Jun-12 01:51N 31°12' E 122°42'0 0.1
2018-Jun-12 01:27N 31°12' E 122°42'0 0.0
2018-Jun-12 00:48N 31°12' E 122°42'0 0.0
2018-Jun-12 00:24N 31°12' E 122°42'0 0.1
2018-Jun-12 00:00N 31°12' E 122°42'0 0.0
2018-Jun-11 23:30N 31°12' E 122°42'0 0.0
2018-Jun-11 23:00N 31°12' E 122°42'  
2018-Jun-09 01:17N 31°11' E 122°48'511.9
2018-Jun-09 00:54N 31°09' E 122°53'9 9.7
2018-Jun-08 23:56N 31°08' E 123°03'4 9.9
2018-Jun-08 23:29N 31°05' E 123°08'1814.0
2018-Jun-08 22:13N 30°51' E 123°21'49112.2
2018-Jun-07 05:53N 23°52' E 118°33'513.5
2018-Jun-07 05:29N 23°49' E 118°28'4412.8
2018-Jun-07 02:04N 23°27' E 117°47'112.2
2018-Jun-07 02:00N 23°26' E 117°46'612.5
2018-Jun-07 01:30N 23°24' E 117°40'  

Dump ship's entire track history